sensor_id;sensor_type;location;lat;lon;timestamp;P1;durP1;ratioP1;P2;durP2;ratioP2
49310;SDS011;35177;45.900;5.946;2024-01-15T00:02:23;73.18;;;33.65;;
49310;SDS011;35177;45.900;5.946;2024-01-15T00:04:48;63.75;;;29.02;;
49310;SDS011;35177;45.900;5.946;2024-01-15T00:07:14;62.95;;;27.75;;
49310;SDS011;35177;45.900;5.946;2024-01-15T00:09:39;59.00;;;26.75;;
49310;SDS011;35177;45.900;5.946;2024-01-15T00:12:05;64.25;;;27.95;;
49310;SDS011;35177;45.900;5.946;2024-01-15T00:14:30;63.30;;;27.48;;
49310;SDS011;35177;45.900;5.946;2024-01-15T00:16:56;60.20;;;28.23;;
49310;SDS011;35177;45.900;5.946;2024-01-15T00:19:21;65.32;;;28.52;;
49310;SDS011;35177;45.900;5.946;2024-01-15T00:21:47;59.15;;;27.10;;
49310;SDS011;35177;45.900;5.946;2024-01-15T00:24:13;62.65;;;26.83;;
49310;SDS011;35177;45.900;5.946;2024-01-15T00:26:39;59.50;;;26.42;;
49310;SDS011;35177;45.900;5.946;2024-01-15T00:29:06;64.43;;;28.55;;
49310;SDS011;35177;45.900;5.946;2024-01-15T00:31:31;65.40;;;30.20;;
49310;SDS011;35177;45.900;5.946;2024-01-15T00:33:57;62.83;;;30.42;;
49310;SDS011;35177;45.900;5.946;2024-01-15T00:36:22;64.35;;;28.33;;
49310;SDS011;35177;45.900;5.946;2024-01-15T00:38:48;60.97;;;25.15;;
49310;SDS011;35177;45.900;5.946;2024-01-15T00:41:14;61.00;;;26.38;;
49310;SDS011;35177;45.900;5.946;2024-01-15T00:43:39;55.90;;;25.17;;
49310;SDS011;35177;45.900;5.946;2024-01-15T00:46:05;62.00;;;25.55;;
49310;SDS011;35177;45.900;5.946;2024-01-15T00:48:31;59.03;;;26.63;;
49310;SDS011;35177;45.900;5.946;2024-01-15T00:50:56;59.15;;;25.60;;
49310;SDS011;35177;45.900;5.946;2024-01-15T00:53:22;59.13;;;27.38;;
49310;SDS011;35177;45.900;5.946;2024-01-15T00:55:48;53.22;;;24.92;;
49310;SDS011;35177;45.900;5.946;2024-01-15T00:58:13;57.20;;;26.15;;
49310;SDS011;35177;45.900;5.946;2024-01-15T01:00:39;53.15;;;24.70;;
49310;SDS011;35177;45.900;5.946;2024-01-15T01:03:04;62.83;;;27.02;;
49310;SDS011;35177;45.900;5.946;2024-01-15T01:05:30;60.20;;;25.58;;
49310;SDS011;35177;45.900;5.946;2024-01-15T01:07:55;57.55;;;25.45;;
49310;SDS011;35177;45.900;5.946;2024-01-15T01:10:21;50.10;;;24.17;;
49310;SDS011;35177;45.900;5.946;2024-01-15T01:12:46;54.63;;;26.35;;
49310;SDS011;35177;45.900;5.946;2024-01-15T01:15:11;57.33;;;26.02;;
49310;SDS011;35177;45.900;5.946;2024-01-15T01:17:37;56.42;;;25.13;;
49310;SDS011;35177;45.900;5.946;2024-01-15T01:20:02;58.03;;;26.58;;
49310;SDS011;35177;45.900;5.946;2024-01-15T01:22:31;58.17;;;24.85;;
49310;SDS011;35177;45.900;5.946;2024-01-15T01:24:56;53.28;;;25.27;;
49310;SDS011;35177;45.900;5.946;2024-01-15T01:27:21;55.30;;;25.15;;
49310;SDS011;35177;45.900;5.946;2024-01-15T01:29:47;56.17;;;25.85;;
49310;SDS011;35177;45.900;5.946;2024-01-15T01:32:12;57.28;;;25.30;;
49310;SDS011;35177;45.900;5.946;2024-01-15T01:34:41;58.40;;;25.83;;
49310;SDS011;35177;45.900;5.946;2024-01-15T01:37:07;54.55;;;26.67;;
49310;SDS011;35177;45.900;5.946;2024-01-15T01:39:33;57.08;;;26.63;;
49310;SDS011;35177;45.900;5.946;2024-01-15T01:41:59;58.45;;;25.83;;
49310;SDS011;35177;45.900;5.946;2024-01-15T01:44:24;56.20;;;24.60;;
49310;SDS011;35177;45.900;5.946;2024-01-15T01:46:49;48.47;;;24.40;;
49310;SDS011;35177;45.900;5.946;2024-01-15T01:49:15;54.95;;;25.77;;
49310;SDS011;35177;45.900;5.946;2024-01-15T01:51:41;60.03;;;26.48;;
49310;SDS011;35177;45.900;5.946;2024-01-15T01:54:06;53.08;;;25.85;;
49310;SDS011;35177;45.900;5.946;2024-01-15T01:56:34;56.92;;;25.85;;
49310;SDS011;35177;45.900;5.946;2024-01-15T01:59:01;57.17;;;26.90;;
49310;SDS011;35177;45.900;5.946;2024-01-15T02:01:28;55.72;;;27.05;;
49310;SDS011;35177;45.900;5.946;2024-01-15T02:03:54;57.13;;;26.92;;
49310;SDS011;35177;45.900;5.946;2024-01-15T02:06:21;55.28;;;25.92;;
49310;SDS011;35177;45.900;5.946;2024-01-15T02:08:48;54.72;;;25.45;;
49310;SDS011;35177;45.900;5.946;2024-01-15T02:11:13;54.40;;;25.83;;
49310;SDS011;35177;45.900;5.946;2024-01-15T02:13:39;49.30;;;24.67;;
49310;SDS011;35177;45.900;5.946;2024-01-15T02:16:05;59.10;;;25.85;;
49310;SDS011;35177;45.900;5.946;2024-01-15T02:18:39;58.58;;;24.48;;
49310;SDS011;35177;45.900;5.946;2024-01-15T02:21:05;49.40;;;24.73;;
49310;SDS011;35177;45.900;5.946;2024-01-15T02:23:30;53.70;;;24.45;;
49310;SDS011;35177;45.900;5.946;2024-01-15T02:25:56;62.67;;;28.23;;
49310;SDS011;35177;45.900;5.946;2024-01-15T02:28:21;55.03;;;25.58;;
49310;SDS011;35177;45.900;5.946;2024-01-15T02:30:47;57.60;;;26.42;;
49310;SDS011;35177;45.900;5.946;2024-01-15T02:33:12;56.10;;;26.90;;
49310;SDS011;35177;45.900;5.946;2024-01-15T02:35:38;61.28;;;26.17;;
49310;SDS011;35177;45.900;5.946;2024-01-15T02:38:07;61.60;;;27.83;;
49310;SDS011;35177;45.900;5.946;2024-01-15T02:40:33;59.58;;;26.88;;
49310;SDS011;35177;45.900;5.946;2024-01-15T02:42:58;63.72;;;28.10;;
49310;SDS011;35177;45.900;5.946;2024-01-15T02:45:24;54.50;;;26.65;;
49310;SDS011;35177;45.900;5.946;2024-01-15T02:47:49;59.05;;;27.52;;
49310;SDS011;35177;45.900;5.946;2024-01-15T02:50:15;57.92;;;28.08;;
49310;SDS011;35177;45.900;5.946;2024-01-15T02:52:43;66.72;;;28.67;;
49310;SDS011;35177;45.900;5.946;2024-01-15T02:55:08;61.00;;;28.00;;
49310;SDS011;35177;45.900;5.946;2024-01-15T02:57:34;57.97;;;27.55;;
49310;SDS011;35177;45.900;5.946;2024-01-15T02:59:59;55.25;;;26.40;;
49310;SDS011;35177;45.900;5.946;2024-01-15T03:02:25;56.22;;;25.77;;
49310;SDS011;35177;45.900;5.946;2024-01-15T03:04:50;52.88;;;25.05;;
49310;SDS011;35177;45.900;5.946;2024-01-15T03:07:16;56.03;;;25.02;;
49310;SDS011;35177;45.900;5.946;2024-01-15T03:09:42;52.75;;;25.35;;
49310;SDS011;35177;45.900;5.946;2024-01-15T03:12:07;49.55;;;24.92;;
49310;SDS011;35177;45.900;5.946;2024-01-15T03:14:33;56.72;;;25.23;;
49310;SDS011;35177;45.900;5.946;2024-01-15T03:16:58;53.65;;;24.13;;
49310;SDS011;35177;45.900;5.946;2024-01-15T03:19:25;53.03;;;25.40;;
49310;SDS011;35177;45.900;5.946;2024-01-15T03:21:51;47.90;;;22.30;;
49310;SDS011;35177;45.900;5.946;2024-01-15T03:24:16;44.30;;;23.52;;
49310;SDS011;35177;45.900;5.946;2024-01-15T03:26:42;56.95;;;25.23;;
49310;SDS011;35177;45.900;5.946;2024-01-15T03:29:07;55.35;;;26.42;;
49310;SDS011;35177;45.900;5.946;2024-01-15T03:31:32;63.80;;;28.98;;
49310;SDS011;35177;45.900;5.946;2024-01-15T03:33:58;58.58;;;28.10;;
49310;SDS011;35177;45.900;5.946;2024-01-15T03:36:23;49.90;;;25.00;;
49310;SDS011;35177;45.900;5.946;2024-01-15T03:38:49;76.03;;;32.45;;
49310;SDS011;35177;45.900;5.946;2024-01-15T03:41:14;62.60;;;30.38;;
49310;SDS011;35177;45.900;5.946;2024-01-15T03:43:40;57.85;;;27.15;;
49310;SDS011;35177;45.900;5.946;2024-01-15T03:46:05;56.17;;;27.77;;
49310;SDS011;35177;45.900;5.946;2024-01-15T03:48:31;49.83;;;24.40;;
49310;SDS011;35177;45.900;5.946;2024-01-15T03:50:56;51.72;;;24.38;;
49310;SDS011;35177;45.900;5.946;2024-01-15T03:53:22;52.08;;;25.48;;
49310;SDS011;35177;45.900;5.946;2024-01-15T03:55:47;62.92;;;26.90;;
49310;SDS011;35177;45.900;5.946;2024-01-15T03:58:12;56.72;;;26.25;;
49310;SDS011;35177;45.900;5.946;2024-01-15T04:00:40;54.13;;;25.27;;
49310;SDS011;35177;45.900;5.946;2024-01-15T04:03:05;59.63;;;26.52;;
49310;SDS011;35177;45.900;5.946;2024-01-15T04:05:31;58.40;;;27.45;;
49310;SDS011;35177;45.900;5.946;2024-01-15T04:07:56;57.42;;;26.00;;
49310;SDS011;35177;45.900;5.946;2024-01-15T04:10:21;58.20;;;26.50;;
49310;SDS011;35177;45.900;5.946;2024-01-15T04:12:47;57.33;;;25.98;;
49310;SDS011;35177;45.900;5.946;2024-01-15T04:15:12;57.45;;;27.13;;
49310;SDS011;35177;45.900;5.946;2024-01-15T04:17:38;55.05;;;26.73;;
49310;SDS011;35177;45.900;5.946;2024-01-15T04:20:04;55.33;;;27.27;;
49310;SDS011;35177;45.900;5.946;2024-01-15T04:22:30;59.63;;;27.80;;
49310;SDS011;35177;45.900;5.946;2024-01-15T04:24:55;50.65;;;25.90;;
49310;SDS011;35177;45.900;5.946;2024-01-15T04:27:21;56.20;;;26.95;;
49310;SDS011;35177;45.900;5.946;2024-01-15T04:29:46;60.10;;;27.20;;
49310;SDS011;35177;45.900;5.946;2024-01-15T04:32:12;56.65;;;25.75;;
49310;SDS011;35177;45.900;5.946;2024-01-15T04:34:37;56.75;;;26.08;;
49310;SDS011;35177;45.900;5.946;2024-01-15T04:37:03;65.35;;;29.38;;
49310;SDS011;35177;45.900;5.946;2024-01-15T04:39:28;66.60;;;29.55;;
49310;SDS011;35177;45.900;5.946;2024-01-15T04:41:54;62.78;;;29.70;;
49310;SDS011;35177;45.900;5.946;2024-01-15T04:44:19;63.67;;;28.58;;
49310;SDS011;35177;45.900;5.946;2024-01-15T04:46:45;61.10;;;27.75;;
49310;SDS011;35177;45.900;5.946;2024-01-15T04:49:10;62.58;;;29.52;;
49310;SDS011;35177;45.900;5.946;2024-01-15T04:51:36;68.53;;;30.50;;
49310;SDS011;35177;45.900;5.946;2024-01-15T04:54:02;67.03;;;30.67;;
49310;SDS011;35177;45.900;5.946;2024-01-15T04:56:27;57.20;;;27.30;;
49310;SDS011;35177;45.900;5.946;2024-01-15T04:58:52;52.95;;;25.45;;
49310;SDS011;35177;45.900;5.946;2024-01-15T05:01:18;55.67;;;26.13;;
49310;SDS011;35177;45.900;5.946;2024-01-15T05:03:43;55.38;;;27.42;;
49310;SDS011;35177;45.900;5.946;2024-01-15T05:06:09;51.80;;;26.25;;
49310;SDS011;35177;45.900;5.946;2024-01-15T05:08:34;56.20;;;25.58;;
49310;SDS011;35177;45.900;5.946;2024-01-15T05:11:00;52.35;;;25.88;;
49310;SDS011;35177;45.900;5.946;2024-01-15T05:13:25;52.60;;;26.10;;
49310;SDS011;35177;45.900;5.946;2024-01-15T05:15:50;51.35;;;25.92;;
49310;SDS011;35177;45.900;5.946;2024-01-15T05:18:16;59.72;;;26.38;;
49310;SDS011;35177;45.900;5.946;2024-01-15T05:20:42;54.13;;;26.95;;
49310;SDS011;35177;45.900;5.946;2024-01-15T05:23:07;52.03;;;25.58;;
49310;SDS011;35177;45.900;5.946;2024-01-15T05:25:33;59.58;;;25.52;;
49310;SDS011;35177;45.900;5.946;2024-01-15T05:27:58;54.58;;;26.95;;
49310;SDS011;35177;45.900;5.946;2024-01-15T05:30:24;59.70;;;28.02;;
49310;SDS011;35177;45.900;5.946;2024-01-15T05:32:49;62.53;;;27.73;;
49310;SDS011;35177;45.900;5.946;2024-01-15T05:35:15;57.45;;;26.48;;
49310;SDS011;35177;45.900;5.946;2024-01-15T05:37:43;59.13;;;26.35;;
49310;SDS011;35177;45.900;5.946;2024-01-15T05:40:10;60.38;;;27.10;;
49310;SDS011;35177;45.900;5.946;2024-01-15T05:42:37;61.17;;;28.05;;
49310;SDS011;35177;45.900;5.946;2024-01-15T05:45:02;61.60;;;29.48;;
49310;SDS011;35177;45.900;5.946;2024-01-15T05:47:29;62.53;;;29.42;;
49310;SDS011;35177;45.900;5.946;2024-01-15T05:49:56;59.17;;;28.88;;
49310;SDS011;35177;45.900;5.946;2024-01-15T05:52:22;91.00;;;41.50;;
49310;SDS011;35177;45.900;5.946;2024-01-15T05:54:48;67.65;;;32.22;;
49310;SDS011;35177;45.900;5.946;2024-01-15T05:57:14;59.08;;;29.65;;
49310;SDS011;35177;45.900;5.946;2024-01-15T05:59:39;63.42;;;30.05;;
49310;SDS011;35177;45.900;5.946;2024-01-15T06:02:05;56.67;;;29.88;;
49310;SDS011;35177;45.900;5.946;2024-01-15T06:04:30;59.58;;;29.38;;
49310;SDS011;35177;45.900;5.946;2024-01-15T06:06:56;57.78;;;27.85;;
49310;SDS011;35177;45.900;5.946;2024-01-15T06:09:21;50.45;;;25.05;;
49310;SDS011;35177;45.900;5.946;2024-01-15T06:11:47;48.67;;;25.33;;
49310;SDS011;35177;45.900;5.946;2024-01-15T06:14:12;50.63;;;24.35;;
49310;SDS011;35177;45.900;5.946;2024-01-15T06:16:38;52.25;;;26.13;;
49310;SDS011;35177;45.900;5.946;2024-01-15T06:19:03;50.25;;;26.92;;
49310;SDS011;35177;45.900;5.946;2024-01-15T06:21:28;50.92;;;26.42;;
49310;SDS011;35177;45.900;5.946;2024-01-15T06:23:54;50.92;;;26.83;;
49310;SDS011;35177;45.900;5.946;2024-01-15T06:26:21;54.33;;;25.48;;
49310;SDS011;35177;45.900;5.946;2024-01-15T06:28:50;51.20;;;24.67;;
49310;SDS011;35177;45.900;5.946;2024-01-15T06:31:15;58.22;;;26.52;;
49310;SDS011;35177;45.900;5.946;2024-01-15T06:33:40;55.13;;;27.30;;
49310;SDS011;35177;45.900;5.946;2024-01-15T06:36:06;57.83;;;25.95;;
49310;SDS011;35177;45.900;5.946;2024-01-15T06:38:32;50.63;;;25.88;;
49310;SDS011;35177;45.900;5.946;2024-01-15T06:40:57;52.92;;;26.42;;
49310;SDS011;35177;45.900;5.946;2024-01-15T06:43:22;59.17;;;27.85;;
49310;SDS011;35177;45.900;5.946;2024-01-15T06:45:48;51.75;;;25.00;;
49310;SDS011;35177;45.900;5.946;2024-01-15T06:48:14;57.15;;;26.98;;
49310;SDS011;35177;45.900;5.946;2024-01-15T06:50:41;58.00;;;27.48;;
49310;SDS011;35177;45.900;5.946;2024-01-15T06:53:10;58.67;;;27.30;;
49310;SDS011;35177;45.900;5.946;2024-01-15T06:55:36;59.33;;;28.10;;
49310;SDS011;35177;45.900;5.946;2024-01-15T06:58:01;60.78;;;28.05;;
49310;SDS011;35177;45.900;5.946;2024-01-15T07:00:27;57.30;;;27.85;;
49310;SDS011;35177;45.900;5.946;2024-01-15T07:02:52;56.78;;;27.65;;
49310;SDS011;35177;45.900;5.946;2024-01-15T07:05:20;55.60;;;26.70;;
49310;SDS011;35177;45.900;5.946;2024-01-15T07:07:45;51.78;;;25.40;;
49310;SDS011;35177;45.900;5.946;2024-01-15T07:10:11;57.38;;;27.67;;
49310;SDS011;35177;45.900;5.946;2024-01-15T07:12:36;60.03;;;27.88;;
49310;SDS011;35177;45.900;5.946;2024-01-15T07:15:02;57.92;;;26.55;;
49310;SDS011;35177;45.900;5.946;2024-01-15T07:17:29;57.42;;;26.85;;
49310;SDS011;35177;45.900;5.946;2024-01-15T07:19:55;59.53;;;28.55;;
49310;SDS011;35177;45.900;5.946;2024-01-15T07:22:20;64.38;;;28.45;;
49310;SDS011;35177;45.900;5.946;2024-01-15T07:24:45;58.75;;;27.92;;
49310;SDS011;35177;45.900;5.946;2024-01-15T07:27:11;65.50;;;29.23;;
49310;SDS011;35177;45.900;5.946;2024-01-15T07:29:36;59.13;;;29.17;;
49310;SDS011;35177;45.900;5.946;2024-01-15T07:32:02;57.97;;;26.80;;
49310;SDS011;35177;45.900;5.946;2024-01-15T07:34:28;60.42;;;28.80;;
49310;SDS011;35177;45.900;5.946;2024-01-15T07:36:54;51.58;;;25.60;;
49310;SDS011;35177;45.900;5.946;2024-01-15T07:39:19;59.65;;;27.38;;
49310;SDS011;35177;45.900;5.946;2024-01-15T07:41:45;51.80;;;26.95;;
49310;SDS011;35177;45.900;5.946;2024-01-15T07:44:10;55.72;;;28.15;;
49310;SDS011;35177;45.900;5.946;2024-01-15T07:46:36;55.47;;;26.35;;
49310;SDS011;35177;45.900;5.946;2024-01-15T07:49:01;52.60;;;26.70;;
49310;SDS011;35177;45.900;5.946;2024-01-15T07:51:27;54.08;;;28.23;;
49310;SDS011;35177;45.900;5.946;2024-01-15T07:53:53;65.47;;;29.52;;
49310;SDS011;35177;45.900;5.946;2024-01-15T07:56:20;55.20;;;28.60;;
49310;SDS011;35177;45.900;5.946;2024-01-15T07:58:46;62.97;;;27.17;;
49310;SDS011;35177;45.900;5.946;2024-01-15T08:01:12;61.65;;;29.08;;
49310;SDS011;35177;45.900;5.946;2024-01-15T08:03:37;61.92;;;29.55;;
49310;SDS011;35177;45.900;5.946;2024-01-15T08:06:03;76.28;;;33.60;;
49310;SDS011;35177;45.900;5.946;2024-01-15T08:08:30;59.97;;;26.90;;
49310;SDS011;35177;45.900;5.946;2024-01-15T08:10:55;58.75;;;27.35;;
49310;SDS011;35177;45.900;5.946;2024-01-15T08:13:21;62.50;;;29.23;;
49310;SDS011;35177;45.900;5.946;2024-01-15T08:15:46;58.42;;;26.88;;
49310;SDS011;35177;45.900;5.946;2024-01-15T08:18:12;56.63;;;28.30;;
49310;SDS011;35177;45.900;5.946;2024-01-15T08:20:38;54.65;;;26.85;;
49310;SDS011;35177;45.900;5.946;2024-01-15T08:23:03;52.22;;;25.45;;
49310;SDS011;35177;45.900;5.946;2024-01-15T08:25:29;58.33;;;28.45;;
49310;SDS011;35177;45.900;5.946;2024-01-15T08:27:55;54.95;;;28.05;;
49310;SDS011;35177;45.900;5.946;2024-01-15T08:30:22;57.80;;;28.45;;
49310;SDS011;35177;45.900;5.946;2024-01-15T08:32:51;55.40;;;26.10;;
49310;SDS011;35177;45.900;5.946;2024-01-15T08:35:16;58.03;;;27.80;;
49310;SDS011;35177;45.900;5.946;2024-01-15T08:37:42;52.55;;;25.75;;
49310;SDS011;35177;45.900;5.946;2024-01-15T08:40:07;59.80;;;27.23;;
49310;SDS011;35177;45.900;5.946;2024-01-15T08:42:33;56.55;;;27.27;;
49310;SDS011;35177;45.900;5.946;2024-01-15T08:44:58;57.63;;;28.58;;
49310;SDS011;35177;45.900;5.946;2024-01-15T08:47:24;52.55;;;27.52;;
49310;SDS011;35177;45.900;5.946;2024-01-15T08:49:50;57.60;;;29.85;;
49310;SDS011;35177;45.900;5.946;2024-01-15T08:52:16;56.67;;;26.55;;
49310;SDS011;35177;45.900;5.946;2024-01-15T08:54:41;51.80;;;26.83;;
49310;SDS011;35177;45.900;5.946;2024-01-15T08:57:07;49.00;;;25.88;;
49310;SDS011;35177;45.900;5.946;2024-01-15T08:59:32;52.55;;;26.63;;
49310;SDS011;35177;45.900;5.946;2024-01-15T09:01:57;48.15;;;24.10;;
49310;SDS011;35177;45.900;5.946;2024-01-15T09:04:23;47.25;;;26.00;;
49310;SDS011;35177;45.900;5.946;2024-01-15T09:06:49;46.58;;;23.92;;
49310;SDS011;35177;45.900;5.946;2024-01-15T09:09:15;49.40;;;25.33;;
49310;SDS011;35177;45.900;5.946;2024-01-15T09:11:40;45.30;;;23.70;;
49310;SDS011;35177;45.900;5.946;2024-01-15T09:14:06;45.88;;;25.38;;
49310;SDS011;35177;45.900;5.946;2024-01-15T09:16:33;51.67;;;25.67;;
49310;SDS011;35177;45.900;5.946;2024-01-15T09:18:58;53.20;;;26.08;;
49310;SDS011;35177;45.900;5.946;2024-01-15T09:21:23;55.13;;;26.60;;
49310;SDS011;35177;45.900;5.946;2024-01-15T09:23:52;50.50;;;25.42;;
49310;SDS011;35177;45.900;5.946;2024-01-15T09:26:17;49.30;;;25.45;;
49310;SDS011;35177;45.900;5.946;2024-01-15T09:28:42;55.42;;;27.48;;
49310;SDS011;35177;45.900;5.946;2024-01-15T09:31:08;52.28;;;26.65;;
49310;SDS011;35177;45.900;5.946;2024-01-15T09:33:33;47.95;;;25.35;;
49310;SDS011;35177;45.900;5.946;2024-01-15T09:36:03;47.60;;;25.67;;
49310;SDS011;35177;45.900;5.946;2024-01-15T09:38:29;58.10;;;28.42;;
49310;SDS011;35177;45.900;5.946;2024-01-15T09:40:56;58.65;;;30.58;;
49310;SDS011;35177;45.900;5.946;2024-01-15T09:43:21;53.78;;;28.33;;
49310;SDS011;35177;45.900;5.946;2024-01-15T09:45:47;48.10;;;26.50;;
49310;SDS011;35177;45.900;5.946;2024-01-15T09:48:14;50.83;;;26.33;;
49310;SDS011;35177;45.900;5.946;2024-01-15T09:50:40;54.70;;;27.30;;
49310;SDS011;35177;45.900;5.946;2024-01-15T09:53:06;45.97;;;25.80;;
49310;SDS011;35177;45.900;5.946;2024-01-15T09:55:31;52.42;;;27.73;;
49310;SDS011;35177;45.900;5.946;2024-01-15T09:58:00;56.90;;;27.80;;
49310;SDS011;35177;45.900;5.946;2024-01-15T10:00:28;45.42;;;25.13;;
49310;SDS011;35177;45.900;5.946;2024-01-15T10:02:56;47.80;;;25.67;;
49310;SDS011;35177;45.900;5.946;2024-01-15T10:05:22;43.40;;;23.85;;
49310;SDS011;35177;45.900;5.946;2024-01-15T10:07:47;49.15;;;26.00;;
49310;SDS011;35177;45.900;5.946;2024-01-15T10:10:16;43.92;;;25.08;;
49310;SDS011;35177;45.900;5.946;2024-01-15T10:12:42;48.65;;;25.70;;
49310;SDS011;35177;45.900;5.946;2024-01-15T10:15:10;51.03;;;27.55;;
49310;SDS011;35177;45.900;5.946;2024-01-15T10:17:37;53.05;;;26.80;;
49310;SDS011;35177;45.900;5.946;2024-01-15T10:20:07;47.85;;;25.45;;
49310;SDS011;35177;45.900;5.946;2024-01-15T10:22:35;49.60;;;26.00;;
49310;SDS011;35177;45.900;5.946;2024-01-15T10:25:09;50.22;;;25.98;;
49310;SDS011;35177;45.900;5.946;2024-01-15T10:27:35;47.47;;;25.00;;
49310;SDS011;35177;45.900;5.946;2024-01-15T10:30:01;47.72;;;24.35;;
49310;SDS011;35177;45.900;5.946;2024-01-15T10:32:28;50.70;;;25.23;;
49310;SDS011;35177;45.900;5.946;2024-01-15T10:34:54;52.03;;;25.10;;
49310;SDS011;35177;45.900;5.946;2024-01-15T10:37:19;46.03;;;25.20;;
49310;SDS011;35177;45.900;5.946;2024-01-15T10:39:46;52.08;;;27.98;;
49310;SDS011;35177;45.900;5.946;2024-01-15T10:42:11;43.50;;;24.33;;
49310;SDS011;35177;45.900;5.946;2024-01-15T10:44:38;50.95;;;28.02;;
49310;SDS011;35177;45.900;5.946;2024-01-15T10:47:04;52.55;;;26.98;;
49310;SDS011;35177;45.900;5.946;2024-01-15T10:49:29;45.97;;;25.73;;
49310;SDS011;35177;45.900;5.946;2024-01-15T10:51:56;52.10;;;27.38;;
49310;SDS011;35177;45.900;5.946;2024-01-15T10:54:22;53.15;;;26.98;;
49310;SDS011;35177;45.900;5.946;2024-01-15T10:56:49;52.58;;;26.65;;
49310;SDS011;35177;45.900;5.946;2024-01-15T10:59:16;51.25;;;26.55;;
49310;SDS011;35177;45.900;5.946;2024-01-15T11:01:42;52.00;;;27.40;;
49310;SDS011;35177;45.900;5.946;2024-01-15T11:04:08;50.30;;;25.17;;
49310;SDS011;35177;45.900;5.946;2024-01-15T11:06:41;47.15;;;24.80;;
49310;SDS011;35177;45.900;5.946;2024-01-15T11:09:11;48.75;;;25.67;;
49310;SDS011;35177;45.900;5.946;2024-01-15T11:11:44;45.95;;;25.15;;
49310;SDS011;35177;45.900;5.946;2024-01-15T11:14:33;46.75;;;24.20;;
49310;SDS011;35177;45.900;5.946;2024-01-15T11:17:09;49.78;;;26.27;;
49310;SDS011;35177;45.900;5.946;2024-01-15T11:19:36;49.83;;;25.58;;
49310;SDS011;35177;45.900;5.946;2024-01-15T11:25:02;51.95;;;27.33;;
49310;SDS011;35177;45.900;5.946;2024-01-15T11:30:16;52.70;;;27.73;;
49310;SDS011;35177;45.900;5.946;2024-01-15T11:32:42;47.60;;;27.08;;
49310;SDS011;35177;45.900;5.946;2024-01-15T11:35:08;51.35;;;26.48;;
49310;SDS011;35177;45.900;5.946;2024-01-15T11:40:17;49.97;;;27.05;;
49310;SDS011;35177;45.900;5.946;2024-01-15T11:42:47;55.78;;;28.85;;
49310;SDS011;35177;45.900;5.946;2024-01-15T11:45:18;51.47;;;28.90;;
49310;SDS011;35177;45.900;5.946;2024-01-15T11:48:00;56.05;;;29.73;;
49310;SDS011;35177;45.900;5.946;2024-01-15T11:50:44;52.47;;;27.17;;
49310;SDS011;35177;45.900;5.946;2024-01-15T11:53:13;49.28;;;28.08;;
49310;SDS011;35177;45.900;5.946;2024-01-15T11:55:44;51.13;;;27.55;;
49310;SDS011;35177;45.900;5.946;2024-01-15T11:58:10;54.67;;;28.80;;
49310;SDS011;35177;45.900;5.946;2024-01-15T12:00:40;58.97;;;28.70;;
49310;SDS011;35177;45.900;5.946;2024-01-15T12:03:07;52.92;;;28.52;;
49310;SDS011;35177;45.900;5.946;2024-01-15T12:05:33;53.58;;;27.23;;
49310;SDS011;35177;45.900;5.946;2024-01-15T12:08:02;54.25;;;28.90;;
49310;SDS011;35177;45.900;5.946;2024-01-15T12:10:28;45.80;;;26.10;;
49310;SDS011;35177;45.900;5.946;2024-01-15T12:12:57;47.50;;;25.80;;
49310;SDS011;35177;45.900;5.946;2024-01-15T12:15:30;39.33;;;22.10;;
49310;SDS011;35177;45.900;5.946;2024-01-15T12:17:57;52.13;;;27.30;;
49310;SDS011;35177;45.900;5.946;2024-01-15T12:20:24;43.63;;;25.55;;
49310;SDS011;35177;45.900;5.946;2024-01-15T12:22:52;47.00;;;25.33;;
49310;SDS011;35177;45.900;5.946;2024-01-15T12:25:17;45.75;;;24.63;;
49310;SDS011;35177;45.900;5.946;2024-01-15T12:27:43;42.83;;;24.90;;
49310;SDS011;35177;45.900;5.946;2024-01-15T12:30:12;49.88;;;26.35;;
49310;SDS011;35177;45.900;5.946;2024-01-15T12:32:39;42.63;;;24.15;;
49310;SDS011;35177;45.900;5.946;2024-01-15T12:35:06;43.55;;;24.02;;
49310;SDS011;35177;45.900;5.946;2024-01-15T12:37:31;40.42;;;23.65;;
49310;SDS011;35177;45.900;5.946;2024-01-15T12:39:58;39.88;;;22.33;;
49310;SDS011;35177;45.900;5.946;2024-01-15T12:42:24;42.05;;;24.00;;
49310;SDS011;35177;45.900;5.946;2024-01-15T12:44:49;41.80;;;24.00;;
49310;SDS011;35177;45.900;5.946;2024-01-15T12:47:15;44.13;;;23.40;;
49310;SDS011;35177;45.900;5.946;2024-01-15T12:49:46;37.58;;;22.60;;
49310;SDS011;35177;45.900;5.946;2024-01-15T12:52:13;37.67;;;22.40;;
49310;SDS011;35177;45.900;5.946;2024-01-15T12:54:38;42.38;;;23.38;;
49310;SDS011;35177;45.900;5.946;2024-01-15T12:57:03;38.85;;;22.98;;
49310;SDS011;35177;45.900;5.946;2024-01-15T12:59:29;42.35;;;23.13;;
49310;SDS011;35177;45.900;5.946;2024-01-15T13:01:54;40.67;;;23.05;;
49310;SDS011;35177;45.900;5.946;2024-01-15T13:04:23;39.20;;;23.52;;
49310;SDS011;35177;45.900;5.946;2024-01-15T13:06:50;43.22;;;23.40;;
49310;SDS011;35177;45.900;5.946;2024-01-15T13:09:16;41.55;;;22.17;;
49310;SDS011;35177;45.900;5.946;2024-01-15T13:11:45;39.40;;;21.98;;
49310;SDS011;35177;45.900;5.946;2024-01-15T13:14:11;40.97;;;21.92;;
49310;SDS011;35177;45.900;5.946;2024-01-15T13:16:39;37.75;;;22.52;;
49310;SDS011;35177;45.900;5.946;2024-01-15T13:19:06;40.03;;;21.67;;
49310;SDS011;35177;45.900;5.946;2024-01-15T13:21:33;39.22;;;21.45;;
49310;SDS011;35177;45.900;5.946;2024-01-15T13:23:58;39.60;;;22.17;;
49310;SDS011;35177;45.900;5.946;2024-01-15T13:26:23;40.35;;;21.60;;
49310;SDS011;35177;45.900;5.946;2024-01-15T13:28:49;40.03;;;23.88;;
49310;SDS011;35177;45.900;5.946;2024-01-15T13:31:15;41.13;;;21.05;;
49310;SDS011;35177;45.900;5.946;2024-01-15T13:33:40;39.35;;;22.25;;
49310;SDS011;35177;45.900;5.946;2024-01-15T13:36:06;43.08;;;22.60;;
49310;SDS011;35177;45.900;5.946;2024-01-15T13:38:38;39.50;;;22.50;;
49310;SDS011;35177;45.900;5.946;2024-01-15T13:41:04;46.00;;;23.35;;
49310;SDS011;35177;45.900;5.946;2024-01-15T13:43:31;40.28;;;23.50;;
49310;SDS011;35177;45.900;5.946;2024-01-15T13:45:57;46.30;;;25.30;;
49310;SDS011;35177;45.900;5.946;2024-01-15T13:48:23;49.83;;;24.52;;
49310;SDS011;35177;45.900;5.946;2024-01-15T13:50:48;49.90;;;27.73;;
49310;SDS011;35177;45.900;5.946;2024-01-15T13:53:15;43.08;;;24.27;;
49310;SDS011;35177;45.900;5.946;2024-01-15T13:55:41;43.95;;;23.95;;
49310;SDS011;35177;45.900;5.946;2024-01-15T13:58:06;41.85;;;25.27;;
49310;SDS011;35177;45.900;5.946;2024-01-15T14:00:32;46.63;;;23.60;;
49310;SDS011;35177;45.900;5.946;2024-01-15T14:02:58;40.45;;;22.33;;
49310;SDS011;35177;45.900;5.946;2024-01-15T14:05:24;36.47;;;20.40;;
49310;SDS011;35177;45.900;5.946;2024-01-15T14:07:49;38.47;;;22.35;;
49310;SDS011;35177;45.900;5.946;2024-01-15T14:10:14;38.05;;;20.45;;
49310;SDS011;35177;45.900;5.946;2024-01-15T14:12:40;35.92;;;20.42;;
49310;SDS011;35177;45.900;5.946;2024-01-15T14:15:06;35.35;;;18.58;;
49310;SDS011;35177;45.900;5.946;2024-01-15T14:17:32;28.02;;;17.25;;
49310;SDS011;35177;45.900;5.946;2024-01-15T14:19:57;38.33;;;20.77;;
49310;SDS011;35177;45.900;5.946;2024-01-15T14:22:23;24.70;;;14.88;;
49310;SDS011;35177;45.900;5.946;2024-01-15T14:24:48;27.38;;;15.38;;